sensor_id;sensor_type;location;lat;lon;timestamp;P1;durP1;ratioP1;P2;durP2;ratioP2
45232;SDS011;30969;51.052;17.056;2022-10-16T00:00:50;7.65;;;6.07;;
45232;SDS011;30969;51.052;17.056;2022-10-16T00:06:07;7.70;;;5.53;;
45232;SDS011;30969;51.052;17.056;2022-10-16T00:11:13;7.40;;;6.63;;
45232;SDS011;30969;51.052;17.056;2022-10-16T00:16:21;9.38;;;6.75;;
45232;SDS011;30969;51.052;17.056;2022-10-16T00:21:25;10.65;;;6.13;;
45232;SDS011;30969;51.052;17.056;2022-10-16T00:26:30;7.15;;;5.43;;
45232;SDS011;30969;51.052;17.056;2022-10-16T00:31:36;8.80;;;6.25;;
45232;SDS011;30969;51.052;17.056;2022-10-16T00:36:40;8.18;;;5.80;;
45232;SDS011;30969;51.052;17.056;2022-10-16T00:41:43;7.30;;;5.53;;
45232;SDS011;30969;51.052;17.056;2022-10-16T00:46:48;8.85;;;5.65;;
45232;SDS011;30969;51.052;17.056;2022-10-16T00:51:53;7.85;;;5.22;;
45232;SDS011;30969;51.052;17.056;2022-10-16T00:56:57;9.98;;;6.07;;
45232;SDS011;30969;51.052;17.056;2022-10-16T01:02:04;9.50;;;4.95;;
45232;SDS011;30969;51.052;17.056;2022-10-16T01:07:10;7.22;;;4.93;;
45232;SDS011;30969;51.052;17.056;2022-10-16T01:12:20;9.25;;;4.10;;
45232;SDS011;30969;51.052;17.056;2022-10-16T01:17:34;6.55;;;4.60;;
45232;SDS011;30969;51.052;17.056;2022-10-16T01:22:48;6.63;;;5.13;;
45232;SDS011;30969;51.052;17.056;2022-10-16T01:28:02;6.53;;;4.47;;
45232;SDS011;30969;51.052;17.056;2022-10-16T01:33:10;7.82;;;5.03;;
45232;SDS011;30969;51.052;17.056;2022-10-16T01:38:20;9.07;;;5.43;;
45232;SDS011;30969;51.052;17.056;2022-10-16T01:43:31;6.30;;;4.80;;
45232;SDS011;30969;51.052;17.056;2022-10-16T01:48:38;5.68;;;4.15;;
45232;SDS011;30969;51.052;17.056;2022-10-16T01:53:44;8.18;;;4.72;;
45232;SDS011;30969;51.052;17.056;2022-10-16T01:58:53;7.82;;;5.10;;
45232;SDS011;30969;51.052;17.056;2022-10-16T02:03:59;8.00;;;5.05;;
45232;SDS011;30969;51.052;17.056;2022-10-16T02:09:06;8.90;;;4.90;;
45232;SDS011;30969;51.052;17.056;2022-10-16T02:14:11;8.52;;;5.60;;
45232;SDS011;30969;51.052;17.056;2022-10-16T02:19:15;10.02;;;5.85;;
45232;SDS011;30969;51.052;17.056;2022-10-16T02:24:22;11.52;;;6.57;;
45232;SDS011;30969;51.052;17.056;2022-10-16T02:29:36;10.30;;;6.75;;
45232;SDS011;30969;51.052;17.056;2022-10-16T02:34:46;8.97;;;6.43;;
45232;SDS011;30969;51.052;17.056;2022-10-16T02:39:51;8.82;;;6.18;;
45232;SDS011;30969;51.052;17.056;2022-10-16T02:44:56;9.43;;;6.50;;
45232;SDS011;30969;51.052;17.056;2022-10-16T02:49:59;10.40;;;6.13;;
45232;SDS011;30969;51.052;17.056;2022-10-16T02:55:03;8.00;;;5.53;;
45232;SDS011;30969;51.052;17.056;2022-10-16T03:00:10;8.70;;;5.60;;
45232;SDS011;30969;51.052;17.056;2022-10-16T03:05:16;9.43;;;6.72;;
45232;SDS011;30969;51.052;17.056;2022-10-16T03:10:20;7.80;;;6.28;;
45232;SDS011;30969;51.052;17.056;2022-10-16T03:15:25;11.35;;;6.70;;
45232;SDS011;30969;51.052;17.056;2022-10-16T03:20:29;8.27;;;6.65;;
45232;SDS011;30969;51.052;17.056;2022-10-16T03:25:33;10.65;;;7.07;;
45232;SDS011;30969;51.052;17.056;2022-10-16T03:30:37;7.65;;;5.97;;
45232;SDS011;30969;51.052;17.056;2022-10-16T03:35:41;8.73;;;6.72;;
45232;SDS011;30969;51.052;17.056;2022-10-16T03:40:44;8.15;;;6.05;;
45232;SDS011;30969;51.052;17.056;2022-10-16T03:45:51;8.40;;;6.00;;
45232;SDS011;30969;51.052;17.056;2022-10-16T03:50:54;8.30;;;6.15;;
45232;SDS011;30969;51.052;17.056;2022-10-16T03:55:57;9.07;;;6.68;;
45232;SDS011;30969;51.052;17.056;2022-10-16T04:01:03;10.02;;;8.38;;
45232;SDS011;30969;51.052;17.056;2022-10-16T04:06:06;10.60;;;7.35;;
45232;SDS011;30969;51.052;17.056;2022-10-16T04:11:10;9.55;;;6.43;;
45232;SDS011;30969;51.052;17.056;2022-10-16T04:16:15;9.30;;;6.38;;
45232;SDS011;30969;51.052;17.056;2022-10-16T04:21:18;8.25;;;5.68;;
45232;SDS011;30969;51.052;17.056;2022-10-16T04:26:21;7.38;;;5.90;;
45232;SDS011;30969;51.052;17.056;2022-10-16T04:31:26;7.82;;;5.47;;
45232;SDS011;30969;51.052;17.056;2022-10-16T04:36:30;6.40;;;5.05;;
45232;SDS011;30969;51.052;17.056;2022-10-16T04:41:33;8.23;;;5.60;;
45232;SDS011;30969;51.052;17.056;2022-10-16T04:46:38;10.25;;;4.60;;
45232;SDS011;30969;51.052;17.056;2022-10-16T04:51:41;6.63;;;4.72;;
45232;SDS011;30969;51.052;17.056;2022-10-16T04:56:45;7.40;;;5.43;;
45232;SDS011;30969;51.052;17.056;2022-10-16T05:01:50;10.25;;;6.72;;
45232;SDS011;30969;51.052;17.056;2022-10-16T05:06:54;9.02;;;6.15;;
45232;SDS011;30969;51.052;17.056;2022-10-16T05:11:57;6.57;;;5.32;;
45232;SDS011;30969;51.052;17.056;2022-10-16T05:17:02;7.45;;;5.82;;
45232;SDS011;30969;51.052;17.056;2022-10-16T05:22:05;9.40;;;5.93;;
45232;SDS011;30969;51.052;17.056;2022-10-16T05:27:09;7.35;;;5.50;;
45232;SDS011;30969;51.052;17.056;2022-10-16T05:32:14;6.72;;;5.55;;
45232;SDS011;30969;51.052;17.056;2022-10-16T05:37:18;8.98;;;6.75;;
45232;SDS011;30969;51.052;17.056;2022-10-16T05:42:21;6.75;;;5.40;;
45232;SDS011;30969;51.052;17.056;2022-10-16T05:47:26;7.78;;;5.65;;
45232;SDS011;30969;51.052;17.056;2022-10-16T05:52:30;6.85;;;5.90;;
45232;SDS011;30969;51.052;17.056;2022-10-16T05:57:34;7.65;;;5.68;;
45232;SDS011;30969;51.052;17.056;2022-10-16T06:02:38;9.30;;;5.57;;
45232;SDS011;30969;51.052;17.056;2022-10-16T06:07:42;8.82;;;6.65;;
45232;SDS011;30969;51.052;17.056;2022-10-16T06:12:45;9.55;;;6.25;;
45232;SDS011;30969;51.052;17.056;2022-10-16T06:17:50;9.95;;;6.32;;
45232;SDS011;30969;51.052;17.056;2022-10-16T06:22:53;8.07;;;5.90;;
45232;SDS011;30969;51.052;17.056;2022-10-16T06:27:56;7.20;;;5.60;;
45232;SDS011;30969;51.052;17.056;2022-10-16T06:33:01;7.57;;;5.32;;
45232;SDS011;30969;51.052;17.056;2022-10-16T06:38:05;7.20;;;5.72;;
45232;SDS011;30969;51.052;17.056;2022-10-16T06:43:08;6.40;;;5.35;;
45232;SDS011;30969;51.052;17.056;2022-10-16T06:48:13;7.38;;;5.25;;
45232;SDS011;30969;51.052;17.056;2022-10-16T06:53:16;7.22;;;5.22;;
45232;SDS011;30969;51.052;17.056;2022-10-16T06:58:20;6.97;;;4.88;;
45232;SDS011;30969;51.052;17.056;2022-10-16T07:03:25;7.05;;;4.88;;
45232;SDS011;30969;51.052;17.056;2022-10-16T07:08:30;5.15;;;4.18;;
45232;SDS011;30969;51.052;17.056;2022-10-16T07:13:34;5.00;;;3.95;;
45232;SDS011;30969;51.052;17.056;2022-10-16T07:18:39;5.65;;;3.67;;
45232;SDS011;30969;51.052;17.056;2022-10-16T07:23:44;5.03;;;3.75;;
45232;SDS011;30969;51.052;17.056;2022-10-16T07:28:48;4.75;;;3.55;;
45232;SDS011;30969;51.052;17.056;2022-10-16T07:33:53;6.28;;;3.55;;
45232;SDS011;30969;51.052;17.056;2022-10-16T07:38:56;5.10;;;3.92;;
45232;SDS011;30969;51.052;17.056;2022-10-16T07:44:01;6.00;;;4.43;;
45232;SDS011;30969;51.052;17.056;2022-10-16T07:49:06;7.10;;;5.30;;
45232;SDS011;30969;51.052;17.056;2022-10-16T07:54:09;6.78;;;4.95;;
45232;SDS011;30969;51.052;17.056;2022-10-16T07:59:13;7.05;;;4.57;;
45232;SDS011;30969;51.052;17.056;2022-10-16T08:04:18;4.57;;;3.50;;
45232;SDS011;30969;51.052;17.056;2022-10-16T08:09:21;6.30;;;4.80;;
45232;SDS011;30969;51.052;17.056;2022-10-16T08:14:25;4.88;;;3.40;;
45232;SDS011;30969;51.052;17.056;2022-10-16T08:19:30;5.25;;;3.38;;
45232;SDS011;30969;51.052;17.056;2022-10-16T08:24:36;4.68;;;3.33;;
45232;SDS011;30969;51.052;17.056;2022-10-16T08:29:39;5.82;;;3.50;;
45232;SDS011;30969;51.052;17.056;2022-10-16T08:34:44;3.90;;;3.00;;
45232;SDS011;30969;51.052;17.056;2022-10-16T08:39:47;4.32;;;3.35;;
45232;SDS011;30969;51.052;17.056;2022-10-16T08:45:02;4.97;;;3.45;;
45232;SDS011;30969;51.052;17.056;2022-10-16T08:50:20;4.53;;;3.17;;
45232;SDS011;30969;51.052;17.056;2022-10-16T08:55:30;4.43;;;3.17;;
45232;SDS011;30969;51.052;17.056;2022-10-16T09:00:38;4.70;;;3.70;;
45232;SDS011;30969;51.052;17.056;2022-10-16T09:05:46;4.00;;;2.97;;
45232;SDS011;30969;51.052;17.056;2022-10-16T09:11:02;4.63;;;3.38;;
45232;SDS011;30969;51.052;17.056;2022-10-16T09:16:13;4.97;;;3.03;;
45232;SDS011;30969;51.052;17.056;2022-10-16T09:21:25;3.67;;;2.58;;
45232;SDS011;30969;51.052;17.056;2022-10-16T09:26:30;3.30;;;2.53;;
45232;SDS011;30969;51.052;17.056;2022-10-16T09:31:35;5.97;;;3.33;;
45232;SDS011;30969;51.052;17.056;2022-10-16T09:36:41;3.35;;;2.25;;
45232;SDS011;30969;51.052;17.056;2022-10-16T09:41:46;4.30;;;2.97;;
45232;SDS011;30969;51.052;17.056;2022-10-16T09:47:00;7.03;;;2.92;;
45232;SDS011;30969;51.052;17.056;2022-10-16T09:52:09;6.50;;;2.83;;
45232;SDS011;30969;51.052;17.056;2022-10-16T09:57:15;5.30;;;2.60;;
45232;SDS011;30969;51.052;17.056;2022-10-16T10:02:19;5.07;;;2.70;;
45232;SDS011;30969;51.052;17.056;2022-10-16T10:07:30;6.38;;;2.50;;
45232;SDS011;30969;51.052;17.056;2022-10-16T10:12:44;2.83;;;2.00;;
45232;SDS011;30969;51.052;17.056;2022-10-16T10:17:49;2.67;;;2.38;;
45232;SDS011;30969;51.052;17.056;2022-10-16T10:22:55;4.90;;;2.45;;
45232;SDS011;30969;51.052;17.056;2022-10-16T10:28:06;2.40;;;1.77;;
45232;SDS011;30969;51.052;17.056;2022-10-16T10:33:20;3.53;;;2.20;;
45232;SDS011;30969;51.052;17.056;2022-10-16T10:38:34;2.33;;;2.10;;
45232;SDS011;30969;51.052;17.056;2022-10-16T10:43:45;2.83;;;1.50;;
45232;SDS011;30969;51.052;17.056;2022-10-16T10:49:04;2.33;;;1.63;;
45232;SDS011;30969;51.052;17.056;2022-10-16T10:54:22;3.85;;;1.67;;
45232;SDS011;30969;51.052;17.056;2022-10-16T10:59:37;2.53;;;1.58;;
45232;SDS011;30969;51.052;17.056;2022-10-16T11:05:18;2.22;;;1.50;;
45232;SDS011;30969;51.052;17.056;2022-10-16T11:10:33;3.00;;;1.70;;
45232;SDS011;30969;51.052;17.056;2022-10-16T11:15:45;3.00;;;1.80;;
45232;SDS011;30969;51.052;17.056;2022-10-16T11:20:52;2.42;;;1.80;;
45232;SDS011;30969;51.052;17.056;2022-10-16T11:26:00;2.75;;;1.90;;
45232;SDS011;30969;51.052;17.056;2022-10-16T11:31:10;2.67;;;2.03;;
45232;SDS011;30969;51.052;17.056;2022-10-16T11:36:19;4.28;;;3.13;;
45232;SDS011;30969;51.052;17.056;2022-10-16T11:41:28;3.40;;;2.95;;
45232;SDS011;30969;51.052;17.056;2022-10-16T11:46:36;3.78;;;3.15;;
45232;SDS011;30969;51.052;17.056;2022-10-16T11:52:03;5.95;;;4.63;;
45232;SDS011;30969;51.052;17.056;2022-10-16T11:57:21;4.35;;;3.50;;
45232;SDS011;30969;51.052;17.056;2022-10-16T12:02:30;4.38;;;3.60;;
45232;SDS011;30969;51.052;17.056;2022-10-16T12:07:43;5.88;;;4.20;;
45232;SDS011;30969;51.052;17.056;2022-10-16T12:17:59;4.28;;;2.97;;
45232;SDS011;30969;51.052;17.056;2022-10-16T12:23:03;4.18;;;2.97;;
45232;SDS011;30969;51.052;17.056;2022-10-16T12:28:17;4.05;;;2.28;;
45232;SDS011;30969;51.052;17.056;2022-10-16T12:33:22;3.45;;;2.53;;
45232;SDS011;30969;51.052;17.056;2022-10-16T12:38:28;5.28;;;2.97;;
45232;SDS011;30969;51.052;17.056;2022-10-16T12:43:38;3.63;;;3.17;;
45232;SDS011;30969;51.052;17.056;2022-10-16T12:48:44;5.70;;;4.35;;
45232;SDS011;30969;51.052;17.056;2022-10-16T12:54:11;7.27;;;5.47;;
45232;SDS011;30969;51.052;17.056;2022-10-16T12:59:21;7.90;;;6.07;;
45232;SDS011;30969;51.052;17.056;2022-10-16T13:04:34;7.72;;;6.35;;
45232;SDS011;30969;51.052;17.056;2022-10-16T13:09:52;7.20;;;5.60;;
45232;SDS011;30969;51.052;17.056;2022-10-16T13:15:09;8.18;;;6.15;;
45232;SDS011;30969;51.052;17.056;2022-10-16T13:20:27;8.70;;;6.95;;
45232;SDS011;30969;51.052;17.056;2022-10-16T13:25:40;9.15;;;7.07;;
45232;SDS011;30969;51.052;17.056;2022-10-16T13:31:00;7.50;;;6.47;;
45232;SDS011;30969;51.052;17.056;2022-10-16T13:36:04;7.55;;;6.25;;
45232;SDS011;30969;51.052;17.056;2022-10-16T13:41:13;6.93;;;5.63;;
45232;SDS011;30969;51.052;17.056;2022-10-16T13:46:20;7.65;;;5.35;;
45232;SDS011;30969;51.052;17.056;2022-10-16T13:51:25;5.13;;;4.38;;
45232;SDS011;30969;51.052;17.056;2022-10-16T13:56:29;8.50;;;4.78;;
45232;SDS011;30969;51.052;17.056;2022-10-16T14:01:39;5.85;;;5.25;;
45232;SDS011;30969;51.052;17.056;2022-10-16T14:06:46;8.00;;;5.20;;
45232;SDS011;30969;51.052;17.056;2022-10-16T14:11:53;8.48;;;5.50;;
45232;SDS011;30969;51.052;17.056;2022-10-16T14:17:00;7.30;;;6.32;;
45232;SDS011;30969;51.052;17.056;2022-10-16T14:22:11;6.85;;;4.97;;
45232;SDS011;30969;51.052;17.056;2022-10-16T14:27:31;5.60;;;4.72;;
45232;SDS011;30969;51.052;17.056;2022-10-16T14:32:37;5.85;;;4.90;;
45232;SDS011;30969;51.052;17.056;2022-10-16T14:37:43;5.95;;;4.80;;
45232;SDS011;30969;51.052;17.056;2022-10-16T14:42:47;6.50;;;5.03;;
45232;SDS011;30969;51.052;17.056;2022-10-16T14:47:53;6.78;;;5.63;;
45232;SDS011;30969;51.052;17.056;2022-10-16T14:52:58;8.02;;;6.00;;
45232;SDS011;30969;51.052;17.056;2022-10-16T14:58:02;10.52;;;5.70;;
45232;SDS011;30969;51.052;17.056;2022-10-16T15:03:07;8.57;;;5.20;;
45232;SDS011;30969;51.052;17.056;2022-10-16T15:08:10;7.03;;;5.60;;
45232;SDS011;30969;51.052;17.056;2022-10-16T15:13:14;7.20;;;6.07;;
45232;SDS011;30969;51.052;17.056;2022-10-16T15:18:19;7.15;;;5.80;;
45232;SDS011;30969;51.052;17.056;2022-10-16T15:23:23;8.65;;;6.85;;
45232;SDS011;30969;51.052;17.056;2022-10-16T15:28:31;8.05;;;6.20;;
45232;SDS011;30969;51.052;17.056;2022-10-16T15:33:36;8.82;;;7.10;;
45232;SDS011;30969;51.052;17.056;2022-10-16T15:38:40;7.22;;;6.40;;
45232;SDS011;30969;51.052;17.056;2022-10-16T15:43:44;12.85;;;7.95;;
45232;SDS011;30969;51.052;17.056;2022-10-16T15:48:50;8.65;;;6.78;;
45232;SDS011;30969;51.052;17.056;2022-10-16T15:53:58;8.57;;;6.25;;
45232;SDS011;30969;51.052;17.056;2022-10-16T15:59:03;10.38;;;6.95;;
45232;SDS011;30969;51.052;17.056;2022-10-16T16:04:09;9.27;;;7.60;;
45232;SDS011;30969;51.052;17.056;2022-10-16T16:09:32;14.10;;;8.32;;
45232;SDS011;30969;51.052;17.056;2022-10-16T16:14:36;12.15;;;9.07;;
45232;SDS011;30969;51.052;17.056;2022-10-16T16:19:40;13.85;;;9.98;;
45232;SDS011;30969;51.052;17.056;2022-10-16T16:24:44;15.90;;;12.10;;
45232;SDS011;30969;51.052;17.056;2022-10-16T16:29:47;15.02;;;11.02;;
45232;SDS011;30969;51.052;17.056;2022-10-16T16:34:52;14.88;;;10.60;;
45232;SDS011;30969;51.052;17.056;2022-10-16T16:39:55;12.60;;;10.18;;
45232;SDS011;30969;51.052;17.056;2022-10-16T16:45:00;13.30;;;10.55;;
45232;SDS011;30969;51.052;17.056;2022-10-16T16:50:05;13.35;;;10.50;;
45232;SDS011;30969;51.052;17.056;2022-10-16T16:55:09;14.23;;;10.35;;
45232;SDS011;30969;51.052;17.056;2022-10-16T17:00:13;11.43;;;9.63;;
45232;SDS011;30969;51.052;17.056;2022-10-16T17:05:19;11.30;;;9.50;;
45232;SDS011;30969;51.052;17.056;2022-10-16T17:10:23;14.30;;;10.15;;
45232;SDS011;30969;51.052;17.056;2022-10-16T17:15:26;15.55;;;10.50;;
45232;SDS011;30969;51.052;17.056;2022-10-16T17:20:31;17.23;;;11.63;;
45232;SDS011;30969;51.052;17.056;2022-10-16T17:25:39;19.08;;;12.85;;
45232;SDS011;30969;51.052;17.056;2022-10-16T17:30:42;16.35;;;12.38;;
45232;SDS011;30969;51.052;17.056;2022-10-16T17:35:48;17.63;;;12.15;;
45232;SDS011;30969;51.052;17.056;2022-10-16T17:40:52;16.33;;;12.48;;
45232;SDS011;30969;51.052;17.056;2022-10-16T17:45:55;17.83;;;12.82;;
45232;SDS011;30969;51.052;17.056;2022-10-16T17:51:03;18.48;;;13.50;;
45232;SDS011;30969;51.052;17.056;2022-10-16T17:56:09;18.98;;;12.20;;
45232;SDS011;30969;51.052;17.056;2022-10-16T18:01:14;18.63;;;13.88;;
45232;SDS011;30969;51.052;17.056;2022-10-16T18:06:23;18.65;;;14.15;;
45232;SDS011;30969;51.052;17.056;2022-10-16T18:11:27;20.77;;;13.68;;
45232;SDS011;30969;51.052;17.056;2022-10-16T18:16:31;19.42;;;13.25;;
45232;SDS011;30969;51.052;17.056;2022-10-16T18:21:36;17.67;;;13.63;;
45232;SDS011;30969;51.052;17.056;2022-10-16T18:26:40;20.23;;;15.95;;
45232;SDS011;30969;51.052;17.056;2022-10-16T18:31:44;21.10;;;16.17;;
45232;SDS011;30969;51.052;17.056;2022-10-16T18:36:49;23.42;;;17.58;;
45232;SDS011;30969;51.052;17.056;2022-10-16T18:41:56;21.02;;;16.10;;
45232;SDS011;30969;51.052;17.056;2022-10-16T18:47:00;19.08;;;15.30;;
45232;SDS011;30969;51.052;17.056;2022-10-16T18:52:05;24.95;;;17.40;;
45232;SDS011;30969;51.052;17.056;2022-10-16T18:57:09;18.73;;;14.13;;
45232;SDS011;30969;51.052;17.056;2022-10-16T19:02:12;18.38;;;14.57;;
45232;SDS011;30969;51.052;17.056;2022-10-16T19:07:17;19.92;;;15.15;;
45232;SDS011;30969;51.052;17.056;2022-10-16T19:12:22;20.52;;;14.68;;
45232;SDS011;30969;51.052;17.056;2022-10-16T19:17:25;20.23;;;14.73;;
45232;SDS011;30969;51.052;17.056;2022-10-16T19:22:31;22.88;;;15.88;;
45232;SDS011;30969;51.052;17.056;2022-10-16T19:38:00;23.08;;;16.13;;
45232;SDS011;30969;51.052;17.056;2022-10-16T19:43:04;17.88;;;13.98;;
45232;SDS011;30969;51.052;17.056;2022-10-16T19:48:07;24.30;;;16.23;;
45232;SDS011;30969;51.052;17.056;2022-10-16T19:53:12;23.95;;;18.00;;
45232;SDS011;30969;51.052;17.056;2022-10-16T19:58:16;21.77;;;16.83;;
45232;SDS011;30969;51.052;17.056;2022-10-16T20:03:20;24.50;;;16.65;;
45232;SDS011;30969;51.052;17.056;2022-10-16T20:08:25;22.60;;;17.70;;
45232;SDS011;30969;51.052;17.056;2022-10-16T20:13:28;21.23;;;17.17;;
45232;SDS011;30969;51.052;17.056;2022-10-16T20:18:32;26.67;;;18.23;;
45232;SDS011;30969;51.052;17.056;2022-10-16T20:23:38;26.48;;;17.95;;
45232;SDS011;30969;51.052;17.056;2022-10-16T20:28:42;24.70;;;17.48;;
45232;SDS011;30969;51.052;17.056;2022-10-16T20:33:45;23.73;;;18.05;;
45232;SDS011;30969;51.052;17.056;2022-10-16T20:38:51;21.73;;;17.38;;
45232;SDS011;30969;51.052;17.056;2022-10-16T20:43:55;30.67;;;21.50;;
45232;SDS011;30969;51.052;17.056;2022-10-16T20:48:58;22.48;;;18.90;;
45232;SDS011;30969;51.052;17.056;2022-10-16T20:54:18;22.77;;;18.08;;
45232;SDS011;30969;51.052;17.056;2022-10-16T20:59:21;23.55;;;17.77;;
45232;SDS011;30969;51.052;17.056;2022-10-16T21:04:24;24.63;;;18.20;;
45232;SDS011;30969;51.052;17.056;2022-10-16T21:09:29;26.40;;;18.27;;
45232;SDS011;30969;51.052;17.056;2022-10-16T21:14:33;26.98;;;19.05;;
45232;SDS011;30969;51.052;17.056;2022-10-16T21:19:47;22.45;;;18.67;;
45232;SDS011;30969;51.052;17.056;2022-10-16T21:24:51;23.02;;;18.55;;
45232;SDS011;30969;51.052;17.056;2022-10-16T21:29:55;23.08;;;19.00;;
45232;SDS011;30969;51.052;17.056;2022-10-16T21:34:58;26.05;;;19.20;;
45232;SDS011;30969;51.052;17.056;2022-10-16T21:40:03;27.95;;;21.15;;
45232;SDS011;30969;51.052;17.056;2022-10-16T21:45:08;28.65;;;20.20;;
45232;SDS011;30969;51.052;17.056;2022-10-16T21:50:12;31.73;;;21.92;;
45232;SDS011;30969;51.052;17.056;2022-10-16T21:55:17;28.40;;;20.48;;
45232;SDS011;30969;51.052;17.056;2022-10-16T22:00:20;27.02;;;20.80;;
45232;SDS011;30969;51.052;17.056;2022-10-16T22:05:23;27.73;;;21.20;;
45232;SDS011;30969;51.052;17.056;2022-10-16T22:10:28;26.25;;;19.88;;
45232;SDS011;30969;51.052;17.056;2022-10-16T22:15:32;26.60;;;19.98;;
45232;SDS011;30969;51.052;17.056;2022-10-16T22:20:36;26.17;;;20.48;;
45232;SDS011;30969;51.052;17.056;2022-10-16T22:25:41;28.17;;;19.67;;
45232;SDS011;30969;51.052;17.056;2022-10-16T22:30:44;25.13;;;19.38;;
45232;SDS011;30969;51.052;17.056;2022-10-16T22:35:49;26.23;;;18.92;;
45232;SDS011;30969;51.052;17.056;2022-10-16T22:40:59;24.77;;;19.58;;
45232;SDS011;30969;51.052;17.056;2022-10-16T22:46:04;26.15;;;20.13;;
45232;SDS011;30969;51.052;17.056;2022-10-16T22:51:09;29.48;;;20.25;;
45232;SDS011;30969;51.052;17.056;2022-10-16T22:56:19;25.50;;;20.42;;
45232;SDS011;30969;51.052;17.056;2022-10-16T23:01:24;29.15;;;20.90;;
45232;SDS011;30969;51.052;17.056;2022-10-16T23:06:29;27.58;;;21.40;;
45232;SDS011;30969;51.052;17.056;2022-10-16T23:11:35;28.52;;;21.23;;
45232;SDS011;30969;51.052;17.056;2022-10-16T23:16:38;29.60;;;22.65;;
45232;SDS011;30969;51.052;17.056;2022-10-16T23:21:42;28.17;;;22.33;;
45232;SDS011;30969;51.052;17.056;2022-10-16T23:26:47;34.60;;;23.10;;
45232;SDS011;30969;51.052;17.056;2022-10-16T23:31:52;30.05;;;22.40;;
45232;SDS011;30969;51.052;17.056;2022-10-16T23:36:56;28.08;;;21.70;;
45232;SDS011;30969;51.052;17.056;2022-10-16T23:42:00;27.13;;;21.77;;
45232;SDS011;30969;51.052;17.056;2022-10-16T23:47:04;29.83;;;22.10;;
45232;SDS011;30969;51.052;17.056;2022-10-16T23:52:07;27.58;;;22.45;;
45232;SDS011;30969;51.052;17.056;2022-10-16T23:57:12;28.33;;;21.40;;
